Terminal Aerodrome Forecast
Issued by NWS

Home | Current Version | Previous Version | Text Only | Print | Product List | Glossary On
Versions: 1 2 3 4 5 6 7 8 9 10 11 12 13 14 15 16 17 18
000
FTUS43 KMPX 260001 CCA
TAFAXN
TAF COR
KAXN 260001Z 2600/2624 19007KT P6SM SCT015
     FM260400 19010KT P6SM VCSH OVC015
     FM261100 27009KT 6SM BR FEW010 BKN100
     FM261800 31015G22KT P6SM BKN025=

USA.gov is the U.S. government's official web portal to all federal, state and local government web resources and services.